Voorthuizen, Netherlands
Current Conditions -  °F | °C
As of 6:55 PM on Wednesday 28 Jan 2015 (Local Time) from EHDL Reporting Station
Scattered Clouds Scattered Clouds  
Wind Chill: 30°   Ceiling: Unl
Heat Index: 37°   Visibility: 6mi
Dew Point: 34°   Wind: 12mph
Humidity: 87%   Direction: 240°WSW
Pressure: 29.38"   Gusts: NA
Location:  52.19°N, 5.61°E
Report Text: EHDL 281755Z AUTO 24010KT 9999 FEW033 SCT040 03/01 Q0995 BLU
Loading
Personal Weather Stations






























Interactive Weather Map New forecast layout! Learn more

10-Day Weather Forecast

Advertisements
Track Severe Weather on mobile